sensor_id;sensor_type;location;lat;lon;timestamp;P1;durP1;ratioP1;P2;durP2;ratioP2
40695;SDS011;40425;51.102;17.208;2023-05-24T00:04:11;12.10;;;9.70;;
40695;SDS011;40425;51.102;17.208;2023-05-24T00:09:14;10.88;;;9.82;;
40695;SDS011;40425;51.102;17.208;2023-05-24T00:14:14;10.50;;;9.55;;
40695;SDS011;40425;51.102;17.208;2023-05-24T00:19:15;11.10;;;10.00;;
40695;SDS011;40425;51.102;17.208;2023-05-24T00:24:17;10.60;;;9.05;;
40695;SDS011;40425;51.102;17.208;2023-05-24T00:29:18;9.65;;;7.93;;
40695;SDS011;40425;51.102;17.208;2023-05-24T00:34:19;8.05;;;7.25;;
40695;SDS011;40425;51.102;17.208;2023-05-24T00:39:20;9.13;;;7.53;;
40695;SDS011;40425;51.102;17.208;2023-05-24T00:44:20;7.55;;;6.75;;
40695;SDS011;40425;51.102;17.208;2023-05-24T00:49:21;5.53;;;3.83;;
40695;SDS011;40425;51.102;17.208;2023-05-24T00:54:23;5.85;;;2.72;;
40695;SDS011;40425;51.102;17.208;2023-05-24T00:59:26;6.40;;;2.70;;
40695;SDS011;40425;51.102;17.208;2023-05-24T01:04:27;2.90;;;2.70;;
40695;SDS011;40425;51.102;17.208;2023-05-24T01:09:31;3.10;;;2.90;;
40695;SDS011;40425;51.102;17.208;2023-05-24T01:14:44;3.50;;;1.60;;
40695;SDS011;40425;51.102;17.208;2023-05-24T01:19:51;0.90;;;0.60;;
40695;SDS011;40425;51.102;17.208;2023-05-24T01:25:03;0.60;;;0.32;;
40695;SDS011;40425;51.102;17.208;2023-05-24T01:30:22;0.60;;;0.30;;
40695;SDS011;40425;51.102;17.208;2023-05-24T01:35:24;0.50;;;0.20;;
40695;SDS011;40425;51.102;17.208;2023-05-24T01:40:25;0.57;;;0.20;;
40695;SDS011;40425;51.102;17.208;2023-05-24T01:45:39;0.38;;;0.20;;
40695;SDS011;40425;51.102;17.208;2023-05-24T01:50:44;1.25;;;0.30;;
40695;SDS011;40425;51.102;17.208;2023-05-24T01:55:53;1.35;;;0.30;;
40695;SDS011;40425;51.102;17.208;2023-05-24T02:00:56;0.73;;;0.40;;
40695;SDS011;40425;51.102;17.208;2023-05-24T02:05:57;1.77;;;0.30;;
40695;SDS011;40425;51.102;17.208;2023-05-24T02:10:58;0.73;;;0.40;;
40695;SDS011;40425;51.102;17.208;2023-05-24T02:15:59;0.60;;;0.40;;
40695;SDS011;40425;51.102;17.208;2023-05-24T02:21:01;1.27;;;0.40;;
40695;SDS011;40425;51.102;17.208;2023-05-24T02:26:02;2.28;;;0.73;;
40695;SDS011;40425;51.102;17.208;2023-05-24T02:31:03;2.60;;;1.63;;
40695;SDS011;40425;51.102;17.208;2023-05-24T02:36:05;4.43;;;1.25;;
40695;SDS011;40425;51.102;17.208;2023-05-24T02:41:06;3.03;;;1.60;;
40695;SDS011;40425;51.102;17.208;2023-05-24T02:46:08;5.15;;;2.15;;
40695;SDS011;40425;51.102;17.208;2023-05-24T02:51:09;4.38;;;1.55;;
40695;SDS011;40425;51.102;17.208;2023-05-24T02:56:09;4.22;;;1.42;;
40695;SDS011;40425;51.102;17.208;2023-05-24T03:01:12;3.63;;;1.25;;
40695;SDS011;40425;51.102;17.208;2023-05-24T03:06:13;6.53;;;1.52;;
40695;SDS011;40425;51.102;17.208;2023-05-24T03:11:14;7.28;;;1.15;;
40695;SDS011;40425;51.102;17.208;2023-05-24T03:16:15;5.40;;;0.93;;
40695;SDS011;40425;51.102;17.208;2023-05-24T03:21:16;2.85;;;0.63;;
40695;SDS011;40425;51.102;17.208;2023-05-24T03:26:19;2.70;;;0.82;;
40695;SDS011;40425;51.102;17.208;2023-05-24T03:31:20;4.38;;;1.02;;
40695;SDS011;40425;51.102;17.208;2023-05-24T03:36:23;3.03;;;0.90;;
40695;SDS011;40425;51.102;17.208;2023-05-24T03:41:25;3.47;;;0.50;;
40695;SDS011;40425;51.102;17.208;2023-05-24T03:46:28;2.13;;;0.68;;
40695;SDS011;40425;51.102;17.208;2023-05-24T03:51:29;2.47;;;0.70;;
40695;SDS011;40425;51.102;17.208;2023-05-24T03:56:30;2.95;;;0.63;;
40695;SDS011;40425;51.102;17.208;2023-05-24T04:01:31;3.55;;;1.00;;
40695;SDS011;40425;51.102;17.208;2023-05-24T04:06:32;1.58;;;0.70;;
40695;SDS011;40425;51.102;17.208;2023-05-24T04:11:35;3.45;;;1.30;;
40695;SDS011;40425;51.102;17.208;2023-05-24T04:16:36;2.95;;;1.00;;
40695;SDS011;40425;51.102;17.208;2023-05-24T04:21:38;2.42;;;1.10;;
40695;SDS011;40425;51.102;17.208;2023-05-24T04:26:39;2.55;;;1.27;;
40695;SDS011;40425;51.102;17.208;2023-05-24T04:31:40;2.38;;;1.05;;
40695;SDS011;40425;51.102;17.208;2023-05-24T04:36:43;3.72;;;1.08;;
40695;SDS011;40425;51.102;17.208;2023-05-24T04:41:46;6.47;;;1.30;;
40695;SDS011;40425;51.102;17.208;2023-05-24T04:46:50;4.32;;;1.80;;
40695;SDS011;40425;51.102;17.208;2023-05-24T04:51:50;3.03;;;1.48;;
40695;SDS011;40425;51.102;17.208;2023-05-24T04:56:51;2.65;;;1.60;;
40695;SDS011;40425;51.102;17.208;2023-05-24T05:01:52;3.42;;;2.20;;
40695;SDS011;40425;51.102;17.208;2023-05-24T05:06:53;6.57;;;2.00;;
40695;SDS011;40425;51.102;17.208;2023-05-24T05:11:54;2.88;;;1.58;;
40695;SDS011;40425;51.102;17.208;2023-05-24T05:16:55;3.63;;;1.30;;
40695;SDS011;40425;51.102;17.208;2023-05-24T05:21:56;3.13;;;1.55;;
40695;SDS011;40425;51.102;17.208;2023-05-24T05:26:57;4.38;;;1.60;;
40695;SDS011;40425;51.102;17.208;2023-05-24T05:31:58;4.95;;;2.78;;
40695;SDS011;40425;51.102;17.208;2023-05-24T05:36:58;7.78;;;2.78;;
40695;SDS011;40425;51.102;17.208;2023-05-24T05:41:59;7.65;;;3.83;;
40695;SDS011;40425;51.102;17.208;2023-05-24T05:47:01;8.93;;;3.17;;
40695;SDS011;40425;51.102;17.208;2023-05-24T05:52:04;9.35;;;2.78;;
40695;SDS011;40425;51.102;17.208;2023-05-24T05:57:05;7.15;;;2.25;;
40695;SDS011;40425;51.102;17.208;2023-05-24T06:02:09;4.43;;;1.83;;
40695;SDS011;40425;51.102;17.208;2023-05-24T06:07:11;5.13;;;2.05;;
40695;SDS011;40425;51.102;17.208;2023-05-24T06:12:12;8.80;;;2.13;;
40695;SDS011;40425;51.102;17.208;2023-05-24T06:17:13;7.18;;;2.13;;
40695;SDS011;40425;51.102;17.208;2023-05-24T06:22:14;10.70;;;2.05;;
40695;SDS011;40425;51.102;17.208;2023-05-24T06:27:15;9.98;;;1.77;;
40695;SDS011;40425;51.102;17.208;2023-05-24T06:32:16;7.43;;;1.52;;
40695;SDS011;40425;51.102;17.208;2023-05-24T06:37:17;16.92;;;1.95;;
40695;SDS011;40425;51.102;17.208;2023-05-24T06:42:18;15.18;;;2.88;;
40695;SDS011;40425;51.102;17.208;2023-05-24T06:47:19;8.18;;;2.40;;
40695;SDS011;40425;51.102;17.208;2023-05-24T06:52:21;22.85;;;2.55;;
40695;SDS011;40425;51.102;17.208;2023-05-24T06:57:22;11.15;;;1.52;;
40695;SDS011;40425;51.102;17.208;2023-05-24T07:02:24;9.20;;;1.83;;
40695;SDS011;40425;51.102;17.208;2023-05-24T07:07:27;8.02;;;2.20;;
40695;SDS011;40425;51.102;17.208;2023-05-24T07:12:28;12.48;;;2.42;;
40695;SDS011;40425;51.102;17.208;2023-05-24T07:17:31;9.07;;;1.85;;
40695;SDS011;40425;51.102;17.208;2023-05-24T07:22:32;9.45;;;1.50;;
40695;SDS011;40425;51.102;17.208;2023-05-24T07:27:33;7.55;;;1.15;;
40695;SDS011;40425;51.102;17.208;2023-05-24T07:32:34;11.52;;;1.40;;
40695;SDS011;40425;51.102;17.208;2023-05-24T07:37:34;18.00;;;3.42;;
40695;SDS011;40425;51.102;17.208;2023-05-24T07:42:36;8.82;;;2.30;;
40695;SDS011;40425;51.102;17.208;2023-05-24T07:47:40;9.68;;;1.80;;
40695;SDS011;40425;51.102;17.208;2023-05-24T07:52:41;8.90;;;2.00;;
40695;SDS011;40425;51.102;17.208;2023-05-24T07:57:42;12.55;;;2.17;;
40695;SDS011;40425;51.102;17.208;2023-05-24T08:02:42;7.40;;;1.88;;
40695;SDS011;40425;51.102;17.208;2023-05-24T08:07:45;7.70;;;1.95;;
40695;SDS011;40425;51.102;17.208;2023-05-24T08:12:46;14.68;;;2.58;;
40695;SDS011;40425;51.102;17.208;2023-05-24T08:17:49;9.75;;;1.80;;
40695;SDS011;40425;51.102;17.208;2023-05-24T08:22:49;8.00;;;1.88;;
40695;SDS011;40425;51.102;17.208;2023-05-24T08:27:50;10.50;;;3.50;;
40695;SDS011;40425;51.102;17.208;2023-05-24T08:32:51;7.22;;;2.22;;
40695;SDS011;40425;51.102;17.208;2023-05-24T08:37:52;9.60;;;2.58;;
40695;SDS011;40425;51.102;17.208;2023-05-24T08:42:53;14.50;;;2.33;;
40695;SDS011;40425;51.102;17.208;2023-05-24T08:47:58;17.55;;;3.85;;
40695;SDS011;40425;51.102;17.208;2023-05-24T08:52:59;11.82;;;2.38;;
40695;SDS011;40425;51.102;17.208;2023-05-24T08:58:03;10.90;;;2.35;;
40695;SDS011;40425;51.102;17.208;2023-05-24T09:03:05;9.38;;;2.38;;
40695;SDS011;40425;51.102;17.208;2023-05-24T09:08:07;10.68;;;2.83;;
40695;SDS011;40425;51.102;17.208;2023-05-24T09:13:09;13.18;;;3.05;;
40695;SDS011;40425;51.102;17.208;2023-05-24T09:18:11;9.30;;;2.42;;
40695;SDS011;40425;51.102;17.208;2023-05-24T09:23:12;7.70;;;2.15;;
40695;SDS011;40425;51.102;17.208;2023-05-24T09:28:15;8.73;;;1.80;;
40695;SDS011;40425;51.102;17.208;2023-05-24T09:33:17;5.63;;;1.80;;
40695;SDS011;40425;51.102;17.208;2023-05-24T09:38:21;10.88;;;2.00;;
40695;SDS011;40425;51.102;17.208;2023-05-24T09:43:25;11.85;;;2.72;;
40695;SDS011;40425;51.102;17.208;2023-05-24T09:48:30;8.32;;;2.67;;
40695;SDS011;40425;51.102;17.208;2023-05-24T09:53:32;12.43;;;2.15;;
40695;SDS011;40425;51.102;17.208;2023-05-24T09:58:34;9.40;;;2.10;;
40695;SDS011;40425;51.102;17.208;2023-05-24T10:03:36;6.38;;;1.67;;
40695;SDS011;40425;51.102;17.208;2023-05-24T10:08:37;11.68;;;2.00;;
40695;SDS011;40425;51.102;17.208;2023-05-24T10:13:39;8.23;;;2.30;;
40695;SDS011;40425;51.102;17.208;2023-05-24T10:18:40;10.13;;;2.33;;
40695;SDS011;40425;51.102;17.208;2023-05-24T10:23:42;6.80;;;2.40;;
40695;SDS011;40425;51.102;17.208;2023-05-24T10:28:45;11.50;;;2.33;;
40695;SDS011;40425;51.102;17.208;2023-05-24T10:33:52;10.68;;;2.15;;
40695;SDS011;40425;51.102;17.208;2023-05-24T10:38:57;8.77;;;2.38;;
40695;SDS011;40425;51.102;17.208;2023-05-24T10:43:59;9.45;;;2.33;;
40695;SDS011;40425;51.102;17.208;2023-05-24T10:49:00;8.55;;;2.03;;
40695;SDS011;40425;51.102;17.208;2023-05-24T10:59:23;8.80;;;1.52;;
40695;SDS011;40425;51.102;17.208;2023-05-24T11:04:30;10.25;;;2.00;;
40695;SDS011;40425;51.102;17.208;2023-05-24T11:09:32;7.68;;;2.08;;
40695;SDS011;40425;51.102;17.208;2023-05-24T11:14:37;10.85;;;2.88;;
40695;SDS011;40425;51.102;17.208;2023-05-24T11:19:45;7.50;;;1.88;;
40695;SDS011;40425;51.102;17.208;2023-05-24T11:24:48;5.50;;;1.48;;
40695;SDS011;40425;51.102;17.208;2023-05-24T11:29:52;14.88;;;2.92;;
40695;SDS011;40425;51.102;17.208;2023-05-24T11:34:53;8.10;;;1.90;;
40695;SDS011;40425;51.102;17.208;2023-05-24T11:39:55;9.77;;;2.15;;
40695;SDS011;40425;51.102;17.208;2023-05-24T11:44:56;8.05;;;1.92;;
40695;SDS011;40425;51.102;17.208;2023-05-24T11:49:57;11.75;;;2.00;;
40695;SDS011;40425;51.102;17.208;2023-05-24T11:54:58;11.93;;;2.50;;
40695;SDS011;40425;51.102;17.208;2023-05-24T11:59:59;8.90;;;2.22;;
40695;SDS011;40425;51.102;17.208;2023-05-24T12:05:09;9.90;;;2.85;;
40695;SDS011;40425;51.102;17.208;2023-05-24T12:10:11;8.50;;;1.45;;
40695;SDS011;40425;51.102;17.208;2023-05-24T12:15:12;7.50;;;2.03;;
40695;SDS011;40425;51.102;17.208;2023-05-24T12:20:14;8.15;;;1.50;;
40695;SDS011;40425;51.102;17.208;2023-05-24T12:25:15;8.70;;;1.95;;
40695;SDS011;40425;51.102;17.208;2023-05-24T12:30:23;8.05;;;1.67;;
40695;SDS011;40425;51.102;17.208;2023-05-24T12:35:25;17.60;;;2.88;;
40695;SDS011;40425;51.102;17.208;2023-05-24T12:40:26;9.90;;;2.03;;
40695;SDS011;40425;51.102;17.208;2023-05-24T12:45:32;9.27;;;2.17;;
40695;SDS011;40425;51.102;17.208;2023-05-24T12:50:33;7.35;;;1.85;;
40695;SDS011;40425;51.102;17.208;2023-05-24T12:55:34;9.95;;;2.90;;
40695;SDS011;40425;51.102;17.208;2023-05-24T13:00:36;12.10;;;2.05;;
40695;SDS011;40425;51.102;17.208;2023-05-24T13:05:37;9.05;;;1.80;;
40695;SDS011;40425;51.102;17.208;2023-05-24T13:10:38;9.75;;;2.05;;
40695;SDS011;40425;51.102;17.208;2023-05-24T13:15:39;14.50;;;2.03;;
40695;SDS011;40425;51.102;17.208;2023-05-24T13:20:43;10.90;;;2.08;;
40695;SDS011;40425;51.102;17.208;2023-05-24T13:25:44;14.23;;;1.70;;
40695;SDS011;40425;51.102;17.208;2023-05-24T13:30:45;7.22;;;1.67;;
40695;SDS011;40425;51.102;17.208;2023-05-24T13:35:47;6.97;;;1.73;;
40695;SDS011;40425;51.102;17.208;2023-05-24T13:40:48;9.25;;;1.50;;
40695;SDS011;40425;51.102;17.208;2023-05-24T13:45:50;11.52;;;2.15;;
40695;SDS011;40425;51.102;17.208;2023-05-24T13:50:51;10.82;;;2.00;;
40695;SDS011;40425;51.102;17.208;2023-05-24T13:55:52;25.25;;;1.95;;
40695;SDS011;40425;51.102;17.208;2023-05-24T14:00:53;7.38;;;1.75;;
40695;SDS011;40425;51.102;17.208;2023-05-24T14:05:55;9.60;;;1.38;;
40695;SDS011;40425;51.102;17.208;2023-05-24T14:10:56;7.10;;;1.48;;
40695;SDS011;40425;51.102;17.208;2023-05-24T14:15:57;8.35;;;1.55;;
40695;SDS011;40425;51.102;17.208;2023-05-24T14:20:58;9.73;;;1.65;;
40695;SDS011;40425;51.102;17.208;2023-05-24T14:25:59;14.43;;;1.85;;
40695;SDS011;40425;51.102;17.208;2023-05-24T14:31:00;7.55;;;1.48;;
40695;SDS011;40425;51.102;17.208;2023-05-24T14:36:01;9.68;;;1.25;;
40695;SDS011;40425;51.102;17.208;2023-05-24T14:41:02;10.90;;;1.42;;
40695;SDS011;40425;51.102;17.208;2023-05-24T14:46:03;6.53;;;1.48;;
40695;SDS011;40425;51.102;17.208;2023-05-24T14:51:04;13.43;;;1.92;;
40695;SDS011;40425;51.102;17.208;2023-05-24T14:56:05;5.05;;;1.00;;
40695;SDS011;40425;51.102;17.208;2023-05-24T15:01:08;57.55;;;4.45;;
40695;SDS011;40425;51.102;17.208;2023-05-24T15:06:09;9.13;;;1.50;;
40695;SDS011;40425;51.102;17.208;2023-05-24T15:11:10;5.10;;;1.15;;
40695;SDS011;40425;51.102;17.208;2023-05-24T15:16:12;12.40;;;1.73;;
40695;SDS011;40425;51.102;17.208;2023-05-24T15:21:13;17.40;;;1.73;;
40695;SDS011;40425;51.102;17.208;2023-05-24T15:26:14;6.97;;;1.23;;
40695;SDS011;40425;51.102;17.208;2023-05-24T15:31:16;7.15;;;1.08;;
40695;SDS011;40425;51.102;17.208;2023-05-24T15:36:17;7.18;;;1.15;;
40695;SDS011;40425;51.102;17.208;2023-05-24T15:41:21;3.95;;;1.15;;
40695;SDS011;40425;51.102;17.208;2023-05-24T15:46:22;4.05;;;0.93;;
40695;SDS011;40425;51.102;17.208;2023-05-24T15:51:23;3.08;;;0.70;;
40695;SDS011;40425;51.102;17.208;2023-05-24T15:56:24;7.70;;;0.90;;
40695;SDS011;40425;51.102;17.208;2023-05-24T16:01:25;7.63;;;0.70;;
40695;SDS011;40425;51.102;17.208;2023-05-24T16:06:26;7.82;;;1.33;;
40695;SDS011;40425;51.102;17.208;2023-05-24T16:11:27;4.97;;;0.98;;
40695;SDS011;40425;51.102;17.208;2023-05-24T16:16:29;5.72;;;1.45;;
40695;SDS011;40425;51.102;17.208;2023-05-24T16:21:31;4.78;;;0.73;;
40695;SDS011;40425;51.102;17.208;2023-05-24T16:26:33;6.68;;;1.30;;
40695;SDS011;40425;51.102;17.208;2023-05-24T16:31:35;5.15;;;0.82;;
40695;SDS011;40425;51.102;17.208;2023-05-24T16:36:36;4.35;;;1.08;;
40695;SDS011;40425;51.102;17.208;2023-05-24T16:41:37;5.85;;;0.90;;
40695;SDS011;40425;51.102;17.208;2023-05-24T16:46:39;3.83;;;1.15;;
40695;SDS011;40425;51.102;17.208;2023-05-24T16:51:40;7.70;;;1.40;;
40695;SDS011;40425;51.102;17.208;2023-05-24T16:56:41;5.63;;;1.25;;
40695;SDS011;40425;51.102;17.208;2023-05-24T17:01:42;5.38;;;1.30;;
40695;SDS011;40425;51.102;17.208;2023-05-24T17:06:44;6.03;;;1.08;;
40695;SDS011;40425;51.102;17.208;2023-05-24T17:11:45;5.57;;;1.08;;
40695;SDS011;40425;51.102;17.208;2023-05-24T17:16:46;4.15;;;1.55;;
40695;SDS011;40425;51.102;17.208;2023-05-24T17:21:46;5.15;;;1.30;;
40695;SDS011;40425;51.102;17.208;2023-05-24T17:26:47;6.45;;;1.13;;
40695;SDS011;40425;51.102;17.208;2023-05-24T17:31:48;7.45;;;1.52;;
40695;SDS011;40425;51.102;17.208;2023-05-24T17:36:49;6.22;;;1.60;;
40695;SDS011;40425;51.102;17.208;2023-05-24T17:41:50;5.50;;;1.67;;
40695;SDS011;40425;51.102;17.208;2023-05-24T17:46:51;9.43;;;1.70;;
40695;SDS011;40425;51.102;17.208;2023-05-24T17:51:52;7.20;;;1.88;;
40695;SDS011;40425;51.102;17.208;2023-05-24T17:56:53;10.07;;;2.20;;
40695;SDS011;40425;51.102;17.208;2023-05-24T18:01:54;7.50;;;1.33;;
40695;SDS011;40425;51.102;17.208;2023-05-24T18:06:55;12.15;;;1.92;;
40695;SDS011;40425;51.102;17.208;2023-05-24T18:11:56;6.95;;;1.23;;
40695;SDS011;40425;51.102;17.208;2023-05-24T18:16:57;7.95;;;1.50;;
40695;SDS011;40425;51.102;17.208;2023-05-24T18:21:58;9.57;;;1.70;;
40695;SDS011;40425;51.102;17.208;2023-05-24T18:26:59;12.40;;;2.05;;
40695;SDS011;40425;51.102;17.208;2023-05-24T18:32:01;8.60;;;1.88;;
40695;SDS011;40425;51.102;17.208;2023-05-24T18:37:04;14.93;;;2.92;;
40695;SDS011;40425;51.102;17.208;2023-05-24T18:42:05;9.27;;;2.20;;
40695;SDS011;40425;51.102;17.208;2023-05-24T18:47:08;9.55;;;2.22;;
40695;SDS011;40425;51.102;17.208;2023-05-24T18:52:09;9.68;;;2.38;;
40695;SDS011;40425;51.102;17.208;2023-05-24T18:57:11;10.55;;;2.85;;
40695;SDS011;40425;51.102;17.208;2023-05-24T19:02:16;9.30;;;2.95;;
40695;SDS011;40425;51.102;17.208;2023-05-24T19:07:20;8.93;;;2.55;;
40695;SDS011;40425;51.102;17.208;2023-05-24T19:12:26;7.68;;;1.98;;
40695;SDS011;40425;51.102;17.208;2023-05-24T19:17:29;12.45;;;2.40;;
40695;SDS011;40425;51.102;17.208;2023-05-24T19:22:31;7.55;;;2.55;;
40695;SDS011;40425;51.102;17.208;2023-05-24T19:27:42;10.98;;;2.83;;
40695;SDS011;40425;51.102;17.208;2023-05-24T19:33:08;6.70;;;2.22;;
40695;SDS011;40425;51.102;17.208;2023-05-24T19:38:12;10.07;;;3.03;;
40695;SDS011;40425;51.102;17.208;2023-05-24T19:43:17;15.63;;;2.92;;
40695;SDS011;40425;51.102;17.208;2023-05-24T19:48:19;8.13;;;3.08;;
40695;SDS011;40425;51.102;17.208;2023-05-24T19:53:22;10.07;;;3.95;;
40695;SDS011;40425;51.102;17.208;2023-05-24T19:58:24;11.70;;;3.22;;
40695;SDS011;40425;51.102;17.208;2023-05-24T20:03:27;11.63;;;4.38;;
40695;SDS011;40425;51.102;17.208;2023-05-24T20:08:30;12.93;;;4.18;;
40695;SDS011;40425;51.102;17.208;2023-05-24T20:13:32;8.23;;;3.58;;
40695;SDS011;40425;51.102;17.208;2023-05-24T20:18:33;13.45;;;4.72;;
40695;SDS011;40425;51.102;17.208;2023-05-24T20:23:35;16.65;;;5.78;;
40695;SDS011;40425;51.102;17.208;2023-05-24T20:28:37;14.05;;;7.05;;
40695;SDS011;40425;51.102;17.208;2023-05-24T20:33:40;15.07;;;7.03;;
40695;SDS011;40425;51.102;17.208;2023-05-24T20:38:52;14.25;;;6.25;;
40695;SDS011;40425;51.102;17.208;2023-05-24T20:43:54;17.15;;;6.53;;
40695;SDS011;40425;51.102;17.208;2023-05-24T20:48:56;19.92;;;6.20;;
40695;SDS011;40425;51.102;17.208;2023-05-24T20:53:57;14.02;;;6.22;;
40695;SDS011;40425;51.102;17.208;2023-05-24T20:58:58;19.20;;;6.15;;
40695;SDS011;40425;51.102;17.208;2023-05-24T21:03:59;16.52;;;5.75;;
40695;SDS011;40425;51.102;17.208;2023-05-24T21:08:59;12.25;;;6.22;;
40695;SDS011;40425;51.102;17.208;2023-05-24T21:14:00;14.60;;;6.60;;
40695;SDS011;40425;51.102;17.208;2023-05-24T21:19:01;18.40;;;6.63;;
40695;SDS011;40425;51.102;17.208;2023-05-24T21:24:02;8.80;;;5.50;;
40695;SDS011;40425;51.102;17.208;2023-05-24T21:29:03;26.48;;;7.65;;
40695;SDS011;40425;51.102;17.208;2023-05-24T21:34:04;15.38;;;6.57;;
40695;SDS011;40425;51.102;17.208;2023-05-24T21:39:05;24.25;;;7.65;;
40695;SDS011;40425;51.102;17.208;2023-05-24T21:44:07;16.95;;;8.02;;
40695;SDS011;40425;51.102;17.208;2023-05-24T21:49:08;17.67;;;8.40;;
40695;SDS011;40425;51.102;17.208;2023-05-24T21:54:09;18.15;;;7.68;;
40695;SDS011;40425;51.102;17.208;2023-05-24T21:59:09;23.20;;;9.18;;
40695;SDS011;40425;51.102;17.208;2023-05-24T22:04:10;22.73;;;9.07;;
40695;SDS011;40425;51.102;17.208;2023-05-24T22:09:11;17.55;;;8.15;;
40695;SDS011;40425;51.102;17.208;2023-05-24T22:14:12;13.98;;;8.15;;
40695;SDS011;40425;51.102;17.208;2023-05-24T22:19:13;21.38;;;9.65;;
40695;SDS011;40425;51.102;17.208;2023-05-24T22:24:14;24.85;;;8.88;;
40695;SDS011;40425;51.102;17.208;2023-05-24T22:29:15;21.55;;;8.98;;
40695;SDS011;40425;51.102;17.208;2023-05-24T22:34:25;15.38;;;8.32;;
40695;SDS011;40425;51.102;17.208;2023-05-24T22:39:27;16.92;;;8.23;;
40695;SDS011;40425;51.102;17.208;2023-05-24T22:44:28;20.73;;;8.95;;
40695;SDS011;40425;51.102;17.208;2023-05-24T22:49:29;19.02;;;9.13;;
40695;SDS011;40425;51.102;17.208;2023-05-24T22:54:32;23.05;;;10.15;;
40695;SDS011;40425;51.102;17.208;2023-05-24T22:59:36;17.50;;;8.77;;
40695;SDS011;40425;51.102;17.208;2023-05-24T23:04:37;22.48;;;8.75;;
40695;SDS011;40425;51.102;17.208;2023-05-24T23:09:38;19.50;;;9.52;;
40695;SDS011;40425;51.102;17.208;2023-05-24T23:14:40;16.98;;;9.32;;
40695;SDS011;40425;51.102;17.208;2023-05-24T23:19:45;20.50;;;9.88;;
40695;SDS011;40425;51.102;17.208;2023-05-24T23:24:49;24.00;;;10.80;;
40695;SDS011;40425;51.102;17.208;2023-05-24T23:29:49;20.77;;;10.60;;
40695;SDS011;40425;51.102;17.208;2023-05-24T23:34:50;15.23;;;8.82;;
40695;SDS011;40425;51.102;17.208;2023-05-24T23:39:51;16.85;;;9.55;;
40695;SDS011;40425;51.102;17.208;2023-05-24T23:44:52;17.65;;;9.35;;
40695;SDS011;40425;51.102;17.208;2023-05-24T23:49:53;13.90;;;8.10;;
40695;SDS011;40425;51.102;17.208;2023-05-24T23:54:54;19.63;;;8.45;;
40695;SDS011;40425;51.102;17.208;2023-05-24T23:59:55;15.30;;;7.53;;
